sensor_id;sensor_type;location;lat;lon;timestamp;pressure;altitude;pressure_sealevel;temperature;humidity
71573;BME280;59408;51.032;9.410;2023-10-13T00:01:50;98875.47;;;14.07;100.00
71573;BME280;59408;51.032;9.410;2023-10-13T00:04:16;98869.28;;;14.10;100.00
71573;BME280;59408;51.032;9.410;2023-10-13T00:06:44;98855.84;;;14.05;100.00
71573;BME280;59408;51.032;9.410;2023-10-13T00:09:11;98859.38;;;14.06;100.00
71573;BME280;59408;51.032;9.410;2023-10-13T00:11:41;98871.88;;;14.03;100.00
71573;BME280;59408;51.032;9.410;2023-10-13T00:14:07;98868.41;;;14.06;100.00
71573;BME280;59408;51.032;9.410;2023-10-13T00:16:34;98859.38;;;14.06;100.00
71573;BME280;59408;51.032;9.410;2023-10-13T00:19:00;98862.56;;;14.08;100.00
71573;BME280;59408;51.032;9.410;2023-10-13T00:21:27;98855.94;;;14.09;100.00
71573;BME280;59408;51.032;9.410;2023-10-13T00:23:55;98866.09;;;14.08;100.00
71573;BME280;59408;51.032;9.410;2023-10-13T00:26:23;98872.81;;;14.11;100.00
71573;BME280;59408;51.032;9.410;2023-10-13T00:28:50;98890.09;;;14.15;100.00
71573;BME280;59408;51.032;9.410;2023-10-13T00:31:16;98882.75;;;14.19;100.00
71573;BME280;59408;51.032;9.410;2023-10-13T00:33:43;98874.19;;;14.24;100.00
71573;BME280;59408;51.032;9.410;2023-10-13T00:36:09;98876.94;;;14.24;100.00
71573;BME280;59408;51.032;9.410;2023-10-13T00:38:36;98871.09;;;14.25;100.00
71573;BME280;59408;51.032;9.410;2023-10-13T00:41:03;98873.47;;;14.27;100.00
71573;BME280;59408;51.032;9.410;2023-10-13T00:43:30;98849.94;;;14.26;100.00
71573;BME280;59408;51.032;9.410;2023-10-13T00:45:58;98848.78;;;14.27;100.00
71573;BME280;59408;51.032;9.410;2023-10-13T00:48:29;98842.13;;;14.28;100.00
71573;BME280;59408;51.032;9.410;2023-10-13T00:50:57;98839.38;;;14.28;100.00
71573;BME280;59408;51.032;9.410;2023-10-13T00:53:24;98848.78;;;14.27;100.00
71573;BME280;59408;51.032;9.410;2023-10-13T00:55:51;98844.09;;;14.27;100.00
71573;BME280;59408;51.032;9.410;2023-10-13T00:58:20;98831.44;;;14.23;100.00
71573;BME280;59408;51.032;9.410;2023-10-13T01:00:48;98835.31;;;14.18;100.00
71573;BME280;59408;51.032;9.410;2023-10-13T01:03:14;98838.84;;;14.19;100.00
71573;BME280;59408;51.032;9.410;2023-10-13T01:05:42;98839.69;;;14.23;100.00
71573;BME280;59408;51.032;9.410;2023-10-13T01:08:08;98847.09;;;14.19;100.00
71573;BME280;59408;51.032;9.410;2023-10-13T01:10:35;98842.78;;;14.21;100.00
71573;BME280;59408;51.032;9.410;2023-10-13T01:13:01;98838.22;;;14.29;100.00
71573;BME280;59408;51.032;9.410;2023-10-13T01:15:29;98842.59;;;14.33;100.00
71573;BME280;59408;51.032;9.410;2023-10-13T01:18:06;98846.13;;;14.34;100.00
71573;BME280;59408;51.032;9.410;2023-10-13T01:20:32;98836.75;;;14.35;100.00
71573;BME280;59408;51.032;9.410;2023-10-13T01:22:59;98839.91;;;14.37;100.00
71573;BME280;59408;51.032;9.410;2023-10-13T01:25:26;98844.66;;;14.40;100.00
71573;BME280;59408;51.032;9.410;2023-10-13T01:27:53;98846.25;;;14.41;100.00
71573;BME280;59408;51.032;9.410;2023-10-13T01:30:20;98853.75;;;14.44;100.00
71573;BME280;59408;51.032;9.410;2023-10-13T01:32:47;98848.69;;;14.46;100.00
71573;BME280;59408;51.032;9.410;2023-10-13T01:35:13;98848.31;;;14.48;100.00
71573;BME280;59408;51.032;9.410;2023-10-13T01:37:40;98836.56;;;14.47;100.00
71573;BME280;59408;51.032;9.410;2023-10-13T01:40:07;98831.84;;;14.48;100.00
71573;BME280;59408;51.032;9.410;2023-10-13T01:42:35;98829.13;;;14.48;100.00
71573;BME280;59408;51.032;9.410;2023-10-13T01:45:02;98820.91;;;14.51;100.00
71573;BME280;59408;51.032;9.410;2023-10-13T01:47:28;98816.69;;;14.54;100.00
71573;BME280;59408;51.032;9.410;2023-10-13T01:49:55;98819.88;;;14.59;100.00
71573;BME280;59408;51.032;9.410;2023-10-13T01:52:21;98816.84;;;14.64;100.00
71573;BME280;59408;51.032;9.410;2023-10-13T01:54:48;98810.19;;;14.65;100.00
71573;BME280;59408;51.032;9.410;2023-10-13T01:57:15;98813.31;;;14.67;100.00
71573;BME280;59408;51.032;9.410;2023-10-13T01:59:43;98811.78;;;14.70;100.00
71573;BME280;59408;51.032;9.410;2023-10-13T02:02:10;98810.63;;;14.71;100.00
71573;BME280;59408;51.032;9.410;2023-10-13T02:04:37;98795.31;;;14.70;100.00
71573;BME280;59408;51.032;9.410;2023-10-13T02:07:04;98784.72;;;14.68;100.00
71573;BME280;59408;51.032;9.410;2023-10-13T02:09:30;98772.94;;;14.68;100.00
71573;BME280;59408;51.032;9.410;2023-10-13T02:11:57;98788.63;;;14.67;100.00
71573;BME280;59408;51.032;9.410;2023-10-13T02:14:24;98783.56;;;14.69;100.00
71573;BME280;59408;51.032;9.410;2023-10-13T02:16:52;98789.84;;;14.70;100.00
71573;BME280;59408;51.032;9.410;2023-10-13T02:19:18;98791.78;;;14.69;100.00
71573;BME280;59408;51.032;9.410;2023-10-13T02:21:45;98789.84;;;14.70;100.00
71573;BME280;59408;51.032;9.410;2023-10-13T02:24:12;98783.59;;;14.73;100.00
71573;BME280;59408;51.032;9.410;2023-10-13T02:26:38;98795.41;;;14.77;100.00
71573;BME280;59408;51.032;9.410;2023-10-13T02:29:05;98788.75;;;14.78;100.00
71573;BME280;59408;51.032;9.410;2023-10-13T02:31:32;98787.19;;;14.77;100.00
71573;BME280;59408;51.032;9.410;2023-10-13T02:34:00;98786.75;;;14.75;100.00
71573;BME280;59408;51.032;9.410;2023-10-13T02:36:26;98787.53;;;14.76;100.00
71573;BME280;59408;51.032;9.410;2023-10-13T02:38:53;98782.06;;;14.76;100.00
71573;BME280;59408;51.032;9.410;2023-10-13T02:41:19;98778.13;;;14.73;100.00
71573;BME280;59408;51.032;9.410;2023-10-13T02:43:46;98776.16;;;14.74;100.00
71573;BME280;59408;51.032;9.410;2023-10-13T02:46:12;98770.66;;;14.74;100.00
71573;BME280;59408;51.032;9.410;2023-10-13T02:48:39;98766.72;;;14.71;100.00
71573;BME280;59408;51.032;9.410;2023-10-13T02:51:08;98774.09;;;14.67;100.00
71573;BME280;59408;51.032;9.410;2023-10-13T02:53:34;98769.00;;;14.65;100.00
71573;BME280;59408;51.032;9.410;2023-10-13T02:56:01;98772.16;;;14.67;100.00
71573;BME280;59408;51.032;9.410;2023-10-13T02:58:27;98763.22;;;14.74;100.00
71573;BME280;59408;51.032;9.410;2023-10-13T03:00:54;98764.34;;;14.69;100.00
71573;BME280;59408;51.032;9.410;2023-10-13T03:03:21;98771.41;;;14.70;100.00
71573;BME280;59408;51.032;9.410;2023-10-13T03:05:47;98767.88;;;14.70;100.00
71573;BME280;59408;51.032;9.410;2023-10-13T03:08:15;98758.91;;;14.73;100.00
71573;BME280;59408;51.032;9.410;2023-10-13T03:10:41;98760.44;;;14.70;100.00
71573;BME280;59408;51.032;9.410;2023-10-13T03:13:08;98749.38;;;14.67;100.00
71573;BME280;59408;51.032;9.410;2023-10-13T03:15:34;98743.50;;;14.65;100.00
71573;BME280;59408;51.032;9.410;2023-10-13T03:18:01;98730.56;;;14.65;100.00
71573;BME280;59408;51.032;9.410;2023-10-13T03:20:27;98736.00;;;14.62;100.00
71573;BME280;59408;51.032;9.410;2023-10-13T03:22:54;98732.53;;;14.65;100.00
71573;BME280;59408;51.032;9.410;2023-10-13T03:25:22;98730.88;;;14.60;100.00
71573;BME280;59408;51.032;9.410;2023-10-13T03:27:48;98726.97;;;14.61;100.00
71573;BME280;59408;51.032;9.410;2023-10-13T03:30:15;98714.78;;;14.59;100.00
71573;BME280;59408;51.032;9.410;2023-10-13T03:32:42;98718.38;;;14.63;100.00
71573;BME280;59408;51.032;9.410;2023-10-13T03:35:09;98712.88;;;14.63;100.00
71573;BME280;59408;51.032;9.410;2023-10-13T03:37:35;98721.19;;;14.70;100.00
71573;BME280;59408;51.032;9.410;2023-10-13T03:40:03;98718.09;;;14.71;100.00
71573;BME280;59408;51.032;9.410;2023-10-13T03:42:31;98721.25;;;14.74;100.00
71573;BME280;59408;51.032;9.410;2023-10-13T03:44:57;98715.78;;;14.77;100.00
71573;BME280;59408;51.032;9.410;2023-10-13T03:47:24;98711.13;;;14.81;100.00
71573;BME280;59408;51.032;9.410;2023-10-13T03:49:50;98709.97;;;14.82;100.00
71573;BME280;59408;51.032;9.410;2023-10-13T03:52:17;98704.50;;;14.86;100.00
71573;BME280;59408;51.032;9.410;2023-10-13T03:54:43;98707.69;;;14.88;100.00
71573;BME280;59408;51.032;9.410;2023-10-13T03:57:10;98700.59;;;14.87;100.00
71573;BME280;59408;51.032;9.410;2023-10-13T03:59:38;98700.22;;;14.88;100.00
71573;BME280;59408;51.032;9.410;2023-10-13T04:02:04;98695.09;;;14.87;100.00
71573;BME280;59408;51.032;9.410;2023-10-13T04:04:31;98691.16;;;14.84;100.00
71573;BME280;59408;51.032;9.410;2023-10-13T04:06:58;98693.91;;;14.84;100.00
71573;BME280;59408;51.032;9.410;2023-10-13T04:09:24;98695.56;;;14.92;100.00
71573;BME280;59408;51.032;9.410;2023-10-13T04:11:51;98687.00;;;14.97;100.00
71573;BME280;59408;51.032;9.410;2023-10-13T04:14:17;98681.56;;;15.04;100.00
71573;BME280;59408;51.032;9.410;2023-10-13T04:16:45;98680.44;;;15.09;100.00
71573;BME280;59408;51.032;9.410;2023-10-13T04:19:11;98676.59;;;15.17;100.00
71573;BME280;59408;51.032;9.410;2023-10-13T04:21:38;98667.63;;;15.24;100.00
71573;BME280;59408;51.032;9.410;2023-10-13T04:24:06;98669.25;;;15.28;100.00
71573;BME280;59408;51.032;9.410;2023-10-13T04:26:32;98666.50;;;15.32;100.00
71573;BME280;59408;51.032;9.410;2023-10-13T04:29:01;98665.72;;;15.31;100.00
71573;BME280;59408;51.032;9.410;2023-10-13T04:31:28;98666.56;;;15.35;100.00
71573;BME280;59408;51.032;9.410;2023-10-13T04:33:56;98664.63;;;15.39;100.00
71573;BME280;59408;51.032;9.410;2023-10-13T04:36:22;98673.63;;;15.36;100.00
71573;BME280;59408;51.032;9.410;2023-10-13T04:38:50;98663.44;;;15.37;100.00
71573;BME280;59408;51.032;9.410;2023-10-13T04:41:17;98656.72;;;15.34;100.00
71573;BME280;59408;51.032;9.410;2023-10-13T04:43:43;98662.22;;;15.34;100.00
71573;BME280;59408;51.032;9.410;2023-10-13T04:46:09;98649.69;;;15.37;100.00
71573;BME280;59408;51.032;9.410;2023-10-13T04:48:36;98643.41;;;15.36;100.00
71573;BME280;59408;51.032;9.410;2023-10-13T04:51:08;98647.75;;;15.37;100.00
71573;BME280;59408;51.032;9.410;2023-10-13T04:53:34;98643.41;;;15.36;100.00
71573;BME280;59408;51.032;9.410;2023-10-13T04:56:01;98639.09;;;15.39;100.00
71573;BME280;59408;51.032;9.410;2023-10-13T04:58:27;98639.88;;;15.36;100.00
71573;BME280;59408;51.032;9.410;2023-10-13T05:00:54;98628.50;;;15.37;100.00
71573;BME280;59408;51.032;9.410;2023-10-13T05:03:25;98629.66;;;15.36;100.00
71573;BME280;59408;51.032;9.410;2023-10-13T05:05:51;98634.00;;;15.41;100.00
71573;BME280;59408;51.032;9.410;2023-10-13T05:08:19;98627.75;;;15.44;100.00
71573;BME280;59408;51.032;9.410;2023-10-13T05:10:45;98627.38;;;15.49;100.00
71573;BME280;59408;51.032;9.410;2023-10-13T05:13:12;98608.56;;;15.51;100.00
71573;BME280;59408;51.032;9.410;2023-10-13T05:15:47;98606.72;;;15.62;100.00
71573;BME280;59408;51.032;9.410;2023-10-13T05:18:14;98605.16;;;15.65;100.00
71573;BME280;59408;51.032;9.410;2023-10-13T05:20:40;98602.00;;;15.66;100.00
71573;BME280;59408;51.032;9.410;2023-10-13T05:23:07;98604.41;;;15.71;100.00
71573;BME280;59408;51.032;9.410;2023-10-13T05:25:36;98589.06;;;15.67;100.00
71573;BME280;59408;51.032;9.410;2023-10-13T05:28:03;98592.59;;;15.64;100.00
71573;BME280;59408;51.032;9.410;2023-10-13T05:30:32;98590.63;;;15.64;100.00
71573;BME280;59408;51.032;9.410;2023-10-13T05:32:59;98589.09;;;15.70;100.00
71573;BME280;59408;51.032;9.410;2023-10-13T05:35:25;98581.59;;;15.64;100.00
71573;BME280;59408;51.032;9.410;2023-10-13T05:37:52;98593.75;;;15.63;100.00
71573;BME280;59408;51.032;9.410;2023-10-13T05:40:18;98583.56;;;15.67;100.00
71573;BME280;59408;51.032;9.410;2023-10-13T05:42:46;98585.91;;;15.65;100.00
71573;BME280;59408;51.032;9.410;2023-10-13T05:45:13;98572.97;;;15.65;100.00
71573;BME280;59408;51.032;9.410;2023-10-13T05:47:39;98570.22;;;15.65;100.00
71573;BME280;59408;51.032;9.410;2023-10-13T05:50:06;98586.28;;;15.63;100.00
71573;BME280;59408;51.032;9.410;2023-10-13T05:52:33;98585.44;;;15.59;100.00
71573;BME280;59408;51.032;9.410;2023-10-13T05:55:00;98582.38;;;15.64;100.00
71573;BME280;59408;51.032;9.410;2023-10-13T05:57:26;98586.72;;;15.65;100.00
71573;BME280;59408;51.032;9.410;2023-10-13T05:59:54;98585.53;;;15.70;100.00
71573;BME280;59408;51.032;9.410;2023-10-13T06:02:21;98588.72;;;15.72;100.00
71573;BME280;59408;51.032;9.410;2023-10-13T06:04:48;98580.47;;;15.72;100.00
71573;BME280;59408;51.032;9.410;2023-10-13T06:07:16;98578.13;;;15.74;100.00
71573;BME280;59408;51.032;9.410;2023-10-13T06:09:42;98579.28;;;15.73;100.00
71573;BME280;59408;51.032;9.410;2023-10-13T06:12:08;98587.91;;;15.71;100.00
71573;BME280;59408;51.032;9.410;2023-10-13T06:14:35;98587.94;;;15.75;100.00
71573;BME280;59408;51.032;9.410;2023-10-13T06:17:03;98585.19;;;15.78;100.00
71573;BME280;59408;51.032;9.410;2023-10-13T06:19:29;98581.66;;;15.78;100.00
71573;BME280;59408;51.032;9.410;2023-10-13T06:21:56;98566.72;;;15.75;100.00
71573;BME280;59408;51.032;9.410;2023-10-13T06:24:22;98565.94;;;15.78;100.00
71573;BME280;59408;51.032;9.410;2023-10-13T06:26:49;98561.28;;;15.82;100.00
71573;BME280;59408;51.032;9.410;2023-10-13T06:29:16;98565.56;;;15.80;100.00
71573;BME280;59408;51.032;9.410;2023-10-13T06:31:42;98560.06;;;15.80;100.00
71573;BME280;59408;51.032;9.410;2023-10-13T06:34:10;98567.53;;;15.79;100.00
71573;BME280;59408;51.032;9.410;2023-10-13T06:36:37;98570.69;;;15.81;100.00
71573;BME280;59408;51.032;9.410;2023-10-13T06:39:03;98566.38;;;15.84;100.00
71573;BME280;59408;51.032;9.410;2023-10-13T06:41:30;98580.91;;;15.84;100.00
71573;BME280;59408;51.032;9.410;2023-10-13T06:43:56;98578.56;;;15.87;100.00
71573;BME280;59408;51.032;9.410;2023-10-13T06:46:23;98586.03;;;15.86;100.00
71573;BME280;59408;51.032;9.410;2023-10-13T06:48:49;98584.47;;;15.89;100.00
71573;BME280;59408;51.032;9.410;2023-10-13T06:51:17;98588.00;;;15.89;100.00
71573;BME280;59408;51.032;9.410;2023-10-13T06:53:44;98593.13;;;15.94;100.00
71573;BME280;59408;51.032;9.410;2023-10-13T06:56:11;98592.75;;;15.96;100.00
71573;BME280;59408;51.032;9.410;2023-10-13T06:58:37;98592.00;;;15.99;100.00
71573;BME280;59408;51.032;9.410;2023-10-13T07:01:06;98583.34;;;16.04;100.00
71573;BME280;59408;51.032;9.410;2023-10-13T07:03:33;98587.31;;;16.06;100.00
71573;BME280;59408;51.032;9.410;2023-10-13T07:05:59;98579.88;;;16.10;100.00
71573;BME280;59408;51.032;9.410;2023-10-13T07:08:27;98580.25;;;16.12;100.00
71573;BME280;59408;51.032;9.410;2023-10-13T07:10:54;98576.34;;;16.17;100.00
71573;BME280;59408;51.032;9.410;2023-10-13T07:13:21;98565.75;;;16.19;100.00
71573;BME280;59408;51.032;9.410;2023-10-13T07:15:48;98566.53;;;16.23;100.00
71573;BME280;59408;51.032;9.410;2023-10-13T07:18:15;98570.88;;;16.31;100.00
71573;BME280;59408;51.032;9.410;2023-10-13T07:20:41;98565.81;;;16.37;100.00
71573;BME280;59408;51.032;9.410;2023-10-13T07:23:08;98564.66;;;16.48;100.00
71573;BME280;59408;51.032;9.410;2023-10-13T07:25:36;98580.41;;;16.58;100.00
71573;BME280;59408;51.032;9.410;2023-10-13T07:28:03;98576.16;;;16.65;100.00
71573;BME280;59408;51.032;9.410;2023-10-13T07:30:30;98573.75;;;16.67;100.00
71573;BME280;59408;51.032;9.410;2023-10-13T07:32:57;98576.16;;;16.72;100.00
71573;BME280;59408;51.032;9.410;2023-10-13T07:35:23;98576.16;;;16.72;100.00
71573;BME280;59408;51.032;9.410;2023-10-13T07:37:50;98576.16;;;16.75;100.00
71573;BME280;59408;51.032;9.410;2023-10-13T07:40:17;98562.00;;;16.80;100.00
71573;BME280;59408;51.032;9.410;2023-10-13T07:42:45;98564.75;;;16.80;100.00
71573;BME280;59408;51.032;9.410;2023-10-13T07:45:11;98582.84;;;16.85;100.00
71573;BME280;59408;51.032;9.410;2023-10-13T07:47:38;98586.41;;;16.82;100.00
71573;BME280;59408;51.032;9.410;2023-10-13T07:50:05;98567.91;;;16.79;100.00
71573;BME280;59408;51.032;9.410;2023-10-13T07:52:32;98573.00;;;16.73;100.00
71573;BME280;59408;51.032;9.410;2023-10-13T07:55:01;98575.75;;;16.70;100.00
71573;BME280;59408;51.032;9.410;2023-10-13T07:57:27;98578.50;;;16.66;100.00
71573;BME280;59408;51.032;9.410;2023-10-13T07:59:55;98572.59;;;16.64;100.00
71573;BME280;59408;51.032;9.410;2023-10-13T08:02:21;98566.31;;;16.71;100.00
71573;BME280;59408;51.032;9.410;2023-10-13T08:04:48;98576.91;;;16.69;100.00
71573;BME280;59408;51.032;9.410;2023-10-13T08:07:15;98573.41;;;16.72;100.00
71573;BME280;59408;51.032;9.410;2023-10-13T08:09:42;98574.97;;;16.69;100.00
71573;BME280;59408;51.032;9.410;2023-10-13T08:12:08;98585.59;;;16.71;100.00
71573;BME280;59408;51.032;9.410;2023-10-13T08:14:35;98584.03;;;16.66;100.00
71573;BME280;59408;51.032;9.410;2023-10-13T08:17:07;98575.34;;;16.68;100.00
71573;BME280;59408;51.032;9.410;2023-10-13T08:19:34;98583.22;;;16.66;100.00
71573;BME280;59408;51.032;9.410;2023-10-13T08:22:02;98581.28;;;16.66;100.00
71573;BME280;59408;51.032;9.410;2023-10-13T08:24:28;98574.97;;;16.66;100.00
71573;BME280;59408;51.032;9.410;2023-10-13T08:26:55;98576.13;;;16.68;100.00
71573;BME280;59408;51.032;9.410;2023-10-13T08:29:22;98579.69;;;16.72;100.00
71573;BME280;59408;51.032;9.410;2023-10-13T08:31:50;98573.41;;;16.72;100.00
71573;BME280;59408;51.032;9.410;2023-10-13T08:34:18;98566.31;;;16.71;100.00
71573;BME280;59408;51.032;9.410;2023-10-13T08:36:45;98555.69;;;16.73;100.00
71573;BME280;59408;51.032;9.410;2023-10-13T08:39:12;98550.19;;;16.76;100.00
71573;BME280;59408;51.032;9.410;2023-10-13T08:41:38;98553.72;;;16.80;100.00
71573;BME280;59408;51.032;9.410;2023-10-13T08:44:06;98552.53;;;16.85;100.00
71573;BME280;59408;51.032;9.410;2023-10-13T08:46:35;98552.97;;;16.98;100.00
71573;BME280;59408;51.032;9.410;2023-10-13T08:49:02;98557.31;;;17.02;100.00
71573;BME280;59408;51.032;9.410;2023-10-13T08:51:33;98549.44;;;17.11;100.00
71573;BME280;59408;51.032;9.410;2023-10-13T08:54:00;98538.41;;;17.18;100.00
71573;BME280;59408;51.032;9.410;2023-10-13T08:56:26;98538.78;;;17.24;100.00
71573;BME280;59408;51.032;9.410;2023-10-13T08:58:53;98530.91;;;17.22;100.00
71573;BME280;59408;51.032;9.410;2023-10-13T09:01:21;98525.00;;;17.27;100.00
71573;BME280;59408;51.032;9.410;2023-10-13T09:03:49;98530.50;;;17.35;100.00
71573;BME280;59408;51.032;9.410;2023-10-13T09:06:15;98521.41;;;17.41;100.00
71573;BME280;59408;51.032;9.410;2023-10-13T09:08:43;98509.97;;;17.50;99.21
71573;BME280;59408;51.032;9.410;2023-10-13T09:11:10;98523.38;;;17.58;99.06
71573;BME280;59408;51.032;9.410;2023-10-13T09:13:37;98514.69;;;17.67;96.74
71573;BME280;59408;51.032;9.410;2023-10-13T09:16:09;98516.25;;;17.75;95.66
71573;BME280;59408;51.032;9.410;2023-10-13T09:18:35;98512.28;;;17.80;95.55
71573;BME280;59408;51.032;9.410;2023-10-13T09:21:02;98503.97;;;17.87;94.87
71573;BME280;59408;51.032;9.410;2023-10-13T09:23:28;98507.91;;;17.89;94.01
71573;BME280;59408;51.032;9.410;2023-10-13T09:26:05;98507.47;;;17.98;93.15
71573;BME280;59408;51.032;9.410;2023-10-13T09:28:32;98500.00;;;17.95;93.89
71573;BME280;59408;51.032;9.410;2023-10-13T09:30:58;98497.97;;;18.06;93.07
71573;BME280;59408;51.032;9.410;2023-10-13T09:33:26;98496.41;;;18.05;91.77
71573;BME280;59408;51.032;9.410;2023-10-13T09:35:53;98493.66;;;18.05;91.04
71573;BME280;59408;51.032;9.410;2023-10-13T09:38:20;98479.41;;;18.17;91.53
71573;BME280;59408;51.032;9.410;2023-10-13T09:40:46;98491.59;;;18.23;89.12
71573;BME280;59408;51.032;9.410;2023-10-13T09:43:16;98480.88;;;18.32;88.67
71573;BME280;59408;51.032;9.410;2023-10-13T09:45:43;98485.94;;;18.44;88.72
71573;BME280;59408;51.032;9.410;2023-10-13T09:48:12;98473.19;;;18.65;88.31
71573;BME280;59408;51.032;9.410;2023-10-13T09:50:43;98464.78;;;18.79;87.55
71573;BME280;59408;51.032;9.410;2023-10-13T09:53:10;98463.66;;;18.73;83.01
71573;BME280;59408;51.032;9.410;2023-10-13T09:55:41;98468.34;;;18.76;84.26
71573;BME280;59408;51.032;9.410;2023-10-13T09:58:10;98453.34;;;18.77;82.23
71573;BME280;59408;51.032;9.410;2023-10-13T10:00:43;98451.78;;;18.76;82.96
71573;BME280;59408;51.032;9.410;2023-10-13T10:03:09;98447.81;;;18.80;83.66
71573;BME280;59408;51.032;9.410;2023-10-13T10:05:36;98456.88;;;18.85;82.61
71573;BME280;59408;51.032;9.410;2023-10-13T10:08:03;98445.34;;;18.90;82.17
71573;BME280;59408;51.032;9.410;2023-10-13T10:10:43;98444.56;;;18.89;81.51
71573;BME280;59408;51.032;9.410;2023-10-13T10:13:20;98452.84;;;18.93;79.67
71573;BME280;59408;51.032;9.410;2023-10-13T10:15:51;98445.22;;;19.04;80.77
71573;BME280;59408;51.032;9.410;2023-10-13T10:18:21;98450.88;;;19.31;78.25
71573;BME280;59408;51.032;9.410;2023-10-13T10:20:49;98452.31;;;19.80;78.84
71573;BME280;59408;51.032;9.410;2023-10-13T10:23:24;98446.22;;;20.22;75.01
71573;BME280;59408;51.032;9.410;2023-10-13T10:25:50;98449.72;;;20.77;73.79
71573;BME280;59408;51.032;9.410;2023-10-13T10:28:17;98442.38;;;20.90;71.63
71573;BME280;59408;51.032;9.410;2023-10-13T10:30:44;98453.00;;;20.72;71.51
71573;BME280;59408;51.032;9.410;2023-10-13T10:33:12;98438.72;;;20.73;72.67
71573;BME280;59408;51.032;9.410;2023-10-13T10:35:40;98443.13;;;20.44;73.10
71573;BME280;59408;51.032;9.410;2023-10-13T10:38:07;98447.53;;;20.41;74.10
71573;BME280;59408;51.032;9.410;2023-10-13T10:40:34;98443.34;;;20.80;72.76
71573;BME280;59408;51.032;9.410;2023-10-13T10:43:01;98448.84;;;21.07;72.10
71573;BME280;59408;51.032;9.410;2023-10-13T10:45:36;98443.81;;;21.01;72.56
71573;BME280;59408;51.032;9.410;2023-10-13T10:48:05;98445.09;;;20.70;71.85
71573;BME280;59408;51.032;9.410;2023-10-13T10:50:33;98454.03;;;21.28;70.55
71573;BME280;59408;51.032;9.410;2023-10-13T10:52:59;98448.63;;;21.60;70.33
71573;BME280;59408;51.032;9.410;2023-10-13T10:55:26;98441.91;;;21.81;69.43
71573;BME280;59408;51.032;9.410;2023-10-13T10:57:58;98427.22;;;21.61;69.06
71573;BME280;59408;51.032;9.410;2023-10-13T11:00:25;98440.78;;;21.16;70.60
71573;BME280;59408;51.032;9.410;2023-10-13T11:02:54;98442.06;;;21.11;70.49
71573;BME280;59408;51.032;9.410;2023-10-13T11:05:21;98417.34;;;21.80;68.59
71573;BME280;59408;51.032;9.410;2023-10-13T11:07:49;98414.56;;;22.32;66.84
71573;BME280;59408;51.032;9.410;2023-10-13T11:10:16;98417.88;;;21.71;67.24
71573;BME280;59408;51.032;9.410;2023-10-13T11:12:53;98423.75;;;21.14;68.55
71573;BME280;59408;51.032;9.410;2023-10-13T11:15:20;98400.28;;;20.75;70.46
71573;BME280;59408;51.032;9.410;2023-10-13T11:17:48;98399.00;;;20.56;70.79
71573;BME280;59408;51.032;9.410;2023-10-13T11:20:17;98383.50;;;20.59;71.60
71573;BME280;59408;51.032;9.410;2023-10-13T11:22:47;98391.09;;;20.78;70.57
71573;BME280;59408;51.032;9.410;2023-10-13T11:25:23;98388.91;;;21.72;69.86
71573;BME280;59408;51.032;9.410;2023-10-13T11:27:49;98366.66;;;22.11;67.20
71573;BME280;59408;51.032;9.410;2023-10-13T11:30:16;98356.69;;;21.78;67.05
71573;BME280;59408;51.032;9.410;2023-10-13T11:32:43;98370.50;;;21.42;68.97
71573;BME280;59408;51.032;9.410;2023-10-13T11:35:10;98368.97;;;21.21;69.13
71573;BME280;59408;51.032;9.410;2023-10-13T11:37:37;98377.97;;;21.06;70.37
71573;BME280;59408;51.032;9.410;2023-10-13T11:40:04;98346.69;;;20.82;72.77
71573;BME280;59408;51.032;9.410;2023-10-13T11:42:32;98347.09;;;21.23;72.44
71573;BME280;59408;51.032;9.410;2023-10-13T11:44:58;98362.69;;;21.37;71.94
71573;BME280;59408;51.032;9.410;2023-10-13T11:47:25;98355.00;;;21.45;69.83
71573;BME280;59408;51.032;9.410;2023-10-13T11:49:51;98356.56;;;21.46;70.34
71573;BME280;59408;51.032;9.410;2023-10-13T11:52:18;98353.63;;;21.13;71.34
71573;BME280;59408;51.032;9.410;2023-10-13T11:54:45;98360.09;;;21.07;71.72
71573;BME280;59408;51.032;9.410;2023-10-13T11:57:11;98359.16;;;20.93;71.90
71573;BME280;59408;51.032;9.410;2023-10-13T11:59:39;98359.53;;;20.72;73.20
71573;BME280;59408;51.032;9.410;2023-10-13T12:02:05;98348.09;;;20.47;73.43
71573;BME280;59408;51.032;9.410;2023-10-13T12:04:32;98346.16;;;20.44;74.39
71573;BME280;59408;51.032;9.410;2023-10-13T12:06:59;98345.09;;;20.38;74.12
71573;BME280;59408;51.032;9.410;2023-10-13T12:09:26;98336.16;;;20.50;73.93
71573;BME280;59408;51.032;9.410;2023-10-13T12:11:52;98335.16;;;21.07;72.11
71573;BME280;59408;51.032;9.410;2023-10-13T12:14:19;98345.75;;;21.12;72.07
71573;BME280;59408;51.032;9.410;2023-10-13T12:16:47;98342.53;;;20.93;71.66
71573;BME280;59408;51.032;9.410;2023-10-13T12:19:15;98341.06;;;20.65;71.81
71573;BME280;59408;51.032;9.410;2023-10-13T12:21:42;98330.44;;;20.60;72.84
71573;BME280;59408;51.032;9.410;2023-10-13T12:24:09;98334.06;;;20.34;72.14
71573;BME280;59408;51.032;9.410;2023-10-13T12:26:35;98344.84;;;20.28;72.97
71573;BME280;59408;51.032;9.410;2023-10-13T12:29:02;98336.03;;;20.34;73.89
71573;BME280;59408;51.032;9.410;2023-10-13T12:31:28;98337.56;;;20.38;73.07
71573;BME280;59408;51.032;9.410;2023-10-13T12:33:56;98331.41;;;20.74;72.04
71573;BME280;59408;51.032;9.410;2023-10-13T12:36:23;98326.97;;;20.76;72.41
71573;BME280;59408;51.032;9.410;2023-10-13T12:38:49;98321.16;;;20.71;71.61
71573;BME280;59408;51.032;9.410;2023-10-13T12:41:17;98328.16;;;20.55;72.40
71573;BME280;59408;51.032;9.410;2023-10-13T12:44:00;98322.78;;;20.68;71.99
71573;BME280;59408;51.032;9.410;2023-10-13T12:46:26;98320.69;;;20.52;71.12
71573;BME280;59408;51.032;9.410;2023-10-13T12:48:53;98321.38;;;20.80;71.19
71573;BME280;59408;51.032;9.410;2023-10-13T12:51:21;98310.88;;;20.91;70.61
71573;BME280;59408;51.032;9.410;2023-10-13T12:53:49;98322.13;;;21.03;71.12